George S. — A8TJ9 — position and weather

sailwx.info

Track history (hours):
 
Tides and Currents Weather Stations Pressure Air Temp Water Temp Dewpoint Dewpoint Depression Visibility Wind Speed Wind Dir Waves Ship Positions

George S.

Last reported at 2017-Apr-06 07:43 UTC. Time now 2017-Apr-25 16:34 UTC.
Position N 31°57' E 031°40'.
Warning: this ship's position is 19 days out of date.

Length 274 m; draft 16.2 m.

Type: Tanker. MMSI: 636014372.

Date/timePositionNaut miles runAvg speedWind from/ knotsBaromVisibWave heightAir tempDewpointWater temp
2017-Apr-06 07:43N 31°57' E 031°40'311.8
2017-Apr-06 07:30N 31°59' E 031°38'2413.0
2017-Apr-06 05:41N 32°17' E 031°19'212.7
2017-Apr-06 05:31N 32°19' E 031°17'612.6
2017-Apr-06 05:00N 32°23' E 031°12'712.3
2017-Apr-06 04:28N 32°28' E 031°07'1012.3
2017-Apr-06 03:41N 32°36' E 030°60'2012.3
2017-Apr-06 02:05N 32°50' E 030°44'112.2
2017-Apr-06 02:01N 32°51' E 030°43'5912.4
2017-Apr-05 21:15N 33°35' E 029°57'30112.5
2017-Apr-04 21:15N 37°22' E 025°55'312.3
2017-Apr-04 21:01N 37°25' E 025°53'611.8
2017-Apr-04 20:30N 37°30' E 025°50'612.0
2017-Apr-04 20:00N 37°36' E 025°50'611.9
2017-Apr-04 19:31N 37°42' E 025°50'  
2017-Mar-31 17:03N 44°25' E 037°30'927.6
2017-Mar-31 16:44N 44°31' E 037°38'312.1
2017-Mar-31 16:30N 44°33' E 037°42'611.8
2017-Mar-31 16:00N 44°37' E 037°48'4 8.5
2017-Mar-31 15:30N 44°40' E 037°50'2 3.6
2017-Mar-31 15:00N 44°42' E 037°50'0 0.1
2017-Mar-31 13:59N 44°42' E 037°50'0 0.0
2017-Mar-31 13:29N 44°42' E 037°50'0 0.0
2017-Mar-31 12:59N 44°42' E 037°50'0 0.0
2017-Mar-31 12:29N 44°42' E 037°50'0 0.0
2017-Mar-31 11:59N 44°42' E 037°50'0 0.0
2017-Mar-31 11:29N 44°42' E 037°50'0 0.0
2017-Mar-31 10:59N 44°42' E 037°50'0 0.0
2017-Mar-31 10:29N 44°42' E 037°50'0 0.0
2017-Mar-31 09:59N 44°42' E 037°50'0 0.0
2017-Mar-31 09:29N 44°42' E 037°50'0 0.0
2017-Mar-31 08:59N 44°42' E 037°50'0 0.0
2017-Mar-31 08:29N 44°42' E 037°50'0 0.0
2017-Mar-31 07:59N 44°42' E 037°50'0 0.0
2017-Mar-31 07:29N 44°42' E 037°50'0 0.0
2017-Mar-31 06:59N 44°42' E 037°50'0 0.0
2017-Mar-31 06:29N 44°42' E 037°50'0 0.0
2017-Mar-31 05:59N 44°42' E 037°50'0 0.0
2017-Mar-31 05:29N 44°42' E 037°50'0 0.0
2017-Mar-31 04:59N 44°42' E 037°50'0 0.0
2017-Mar-31 04:32N 44°42' E 037°50'0 0.0
2017-Mar-31 03:32N 44°42' E 037°50'0 0.0
2017-Mar-31 02:32N 44°42' E 037°50'0 0.0
2017-Mar-31 01:32N 44°42' E 037°50'0 0.0
2017-Mar-31 00:32N 44°42' E 037°50'0 0.0
2017-Mar-30 23:32N 44°42' E 037°50'0 0.0
2017-Mar-30 22:32N 44°42' E 037°50'0 0.0
2017-Mar-30 21:32N 44°42' E 037°50'0 0.0
2017-Mar-30 20:32N 44°42' E 037°50'0 0.0
2017-Mar-30 19:32N 44°42' E 037°50'0 0.0
2017-Mar-30 18:32N 44°42' E 037°50'0 0.0
2017-Mar-30 17:32N 44°42' E 037°50'0 0.0
2017-Mar-30 16:32N 44°42' E 037°50'0 0.0
2017-Mar-30 15:32N 44°42' E 037°50'0 0.0
2017-Mar-30 14:32N 44°42' E 037°50'0 0.0
2017-Mar-30 13:32N 44°42' E 037°50'0 0.0
2017-Mar-30 12:32N 44°42' E 037°50'0 0.0
2017-Mar-30 11:32N 44°42' E 037°50'0 0.0
2017-Mar-30 10:32N 44°42' E 037°50'0 0.0
2017-Mar-30 09:29N 44°42' E 037°50'0 0.0
2017-Mar-30 08:32N 44°42' E 037°50'0 0.0
2017-Mar-30 07:34N 44°42' E 037°50'1 0.8
2017-Mar-30 06:33N 44°41' E 037°50'7 6.8
2017-Mar-30 05:33N 44°35' E 037°51'1010.0
2017-Mar-30 04:33N 44°28' E 037°41'5 4.7
2017-Mar-30 03:33N 44°26' E 037°35'2 1.4
2017-Mar-30 02:22N 44°25' E 037°37'1 1.4
2017-Mar-30 01:32N 44°25' E 037°38'2 1.3
2017-Mar-30 00:24N 44°25' E 037°40'1 1.3
2017-Mar-29 23:33N 44°24' E 037°42'1 1.2
2017-Mar-29 22:33N 44°24' E 037°43'1 1.0
2017-Mar-29 21:33N 44°24' E 037°45'1 0.9
2017-Mar-29 20:33N 44°23' E 037°46'1 0.9
2017-Mar-29 19:33N 44°23' E 037°47'1 1.0
2017-Mar-29 18:33N 44°22' E 037°48'4 3.1
2017-Mar-29 17:19N 44°23' E 037°53'3 4.4
2017-Mar-29 16:33N 44°20' E 037°50'7 6.6
2017-Mar-29 15:33N 44°24' E 037°42'2 1.6
2017-Mar-29 14:33N 44°26' E 037°42'1 1.5
2017-Mar-29 13:33N 44°25' E 037°43'2 1.5
2017-Mar-29 12:33N 44°24' E 037°44'2 2.1
2017-Mar-29 11:31N 44°26' E 037°45'2 1.6
2017-Mar-29 10:34N 44°25' E 037°47'2 1.6
2017-Mar-29 09:34N 44°23' E 037°46'2 1.6
2017-Mar-29 08:33N 44°22' E 037°45'2 1.5
2017-Mar-29 07:33N 44°20' E 037°45'1 1.4
2017-Mar-29 06:34N 44°19' E 037°45'1 1.4
2017-Mar-29 05:33N 44°17' E 037°45'2 1.6
2017-Mar-29 04:34N 44°16' E 037°44'1 1.0
2017-Mar-29 03:15N 44°17' E 037°44'811.5
2017-Mar-29 02:32N 44°25' E 037°47'1 1.4
2017-Mar-29 01:33N 44°23' E 037°47'2 2.0
2017-Mar-29 00:33N 44°22' E 037°46'2 2.1
2017-Mar-28 23:33N 44°20' E 037°45'2 2.3
2017-Mar-28 22:33N 44°17' E 037°45'2 1.9
2017-Mar-28 21:27N 44°15' E 037°45'1010.9
2017-Mar-28 20:33N 44°25' E 037°41'3 1.6
2017-Mar-28 18:33N 44°23' E 037°37'10 7.3
2017-Mar-28 17:13N 44°13' E 037°34'1217.2
2017-Mar-28 16:33N 44°24' E 037°39'3 2.0
2017-Mar-28 15:04N 44°23' E 037°35'3 5.0
2017-Mar-28 14:33N 44°26' E 037°37'2 1.6
2017-Mar-28 13:33N 44°24' E 037°37'2 1.5
2017-Mar-28 12:33N 44°22' E 037°37'2 1.6
2017-Mar-28 11:33N 44°21' E 037°36'2 1.6
2017-Mar-28 10:33N 44°19' E 037°35'4 4.3
2017-Mar-28 09:33N 44°22' E 037°41'7 5.8
2017-Mar-28 08:24N 44°20' E 037°50'4 4.3
2017-Mar-28 07:34N 44°23' E 037°47'2 1.8
2017-Mar-28 06:34N 44°21' E 037°46'2 1.7
2017-Mar-28 05:34N 44°20' E 037°45'2 1.5
2017-Mar-28 04:34N 44°18' E 037°45'1 1.3
2017-Mar-28 03:34N 44°17' E 037°44'1 0.9
2017-Mar-28 02:34N 44°16' E 037°43'1 0.7
2017-Mar-28 01:33N 44°16' E 037°42'1 1.0
2017-Mar-28 00:33N 44°17' E 037°41'1 1.5
2017-Mar-27 23:33N 44°18' E 037°39'2 1.6
2017-Mar-27 22:33N 44°19' E 037°37'2 1.6
2017-Mar-27 21:34N 44°19' E 037°35'1 1.3
2017-Mar-27 20:34N 44°20' E 037°34'2 0.8
2017-Mar-27 18:33N 44°21' E 037°32'1 0.7
2017-Mar-27 17:33N 44°21' E 037°31'1 1.3
2017-Mar-27 16:33N 44°20' E 037°33'9 9.2
2017-Mar-27 15:33N 44°16' E 037°45'1 1.0
2017-Mar-27 14:33N 44°16' E 037°44'1 0.9
2017-Mar-27 13:32N 44°15' E 037°43'1 0.8
2017-Mar-27 12:33N 44°15' E 037°42'1 0.7
2017-Mar-27 11:33N 44°15' E 037°41'1 0.6
2017-Mar-27 10:34N 44°15' E 037°40'1 0.6
2017-Mar-27 09:33N 44°15' E 037°39'1 0.5
2017-Mar-27 08:32N 44°16' E 037°39'  
Track history (hours):
 
Tides and Currents Weather Stations Pressure Air Temp Water Temp Dewpoint Dewpoint Depression Visibility Wind Speed Wind Dir Waves Ship Positions

George S.

Last reported at 2017-Apr-06 07:43 UTC. Time now 2017-Apr-25 16:34 UTC.
Position N 31°57' E 031°40'.
Warning: this ship's position is 19 days out of date.

Length 274 m; draft 16.2 m.

Type: Tanker. MMSI: 636014372.

Date/timePositionNaut miles runAvg speedWind from/ knotsBaromVisibWave heightAir tempDewpointWater temp
2017-Apr-06 07:43N 31°57' E 031°40'311.8
2017-Apr-06 07:30N 31°59' E 031°38'2413.0
2017-Apr-06 05:41N 32°17' E 031°19'212.7
2017-Apr-06 05:31N 32°19' E 031°17'612.6
2017-Apr-06 05:00N 32°23' E 031°12'712.3
2017-Apr-06 04:28N 32°28' E 031°07'1012.3
2017-Apr-06 03:41N 32°36' E 030°60'2012.3
2017-Apr-06 02:05N 32°50' E 030°44'112.2
2017-Apr-06 02:01N 32°51' E 030°43'5912.4
2017-Apr-05 21:15N 33°35' E 029°57'30112.5
2017-Apr-04 21:15N 37°22' E 025°55'312.3
2017-Apr-04 21:01N 37°25' E 025°53'611.8
2017-Apr-04 20:30N 37°30' E 025°50'612.0
2017-Apr-04 20:00N 37°36' E 025°50'611.9
2017-Apr-04 19:31N 37°42' E 025°50'  
2017-Mar-31 17:03N 44°25' E 037°30'927.6
2017-Mar-31 16:44N 44°31' E 037°38'312.1
2017-Mar-31 16:30N 44°33' E 037°42'611.8
2017-Mar-31 16:00N 44°37' E 037°48'4 8.5
2017-Mar-31 15:30N 44°40' E 037°50'2 3.6
2017-Mar-31 15:00N 44°42' E 037°50'0 0.1
2017-Mar-31 13:59N 44°42' E 037°50'0 0.0
2017-Mar-31 13:29N 44°42' E 037°50'0 0.0
2017-Mar-31 12:59N 44°42' E 037°50'0 0.0
2017-Mar-31 12:29N 44°42' E 037°50'0 0.0
2017-Mar-31 11:59N 44°42' E 037°50'0 0.0
2017-Mar-31 11:29N 44°42' E 037°50'0 0.0
2017-Mar-31 10:59N 44°42' E 037°50'0 0.0
2017-Mar-31 10:29N 44°42' E 037°50'0 0.0
2017-Mar-31 09:59N 44°42' E 037°50'0 0.0
2017-Mar-31 09:29N 44°42' E 037°50'0 0.0
2017-Mar-31 08:59N 44°42' E 037°50'0 0.0
2017-Mar-31 08:29N 44°42' E 037°50'0 0.0
2017-Mar-31 07:59N 44°42' E 037°50'0 0.0
2017-Mar-31 07:29N 44°42' E 037°50'0 0.0
2017-Mar-31 06:59N 44°42' E 037°50'0 0.0
2017-Mar-31 06:29N 44°42' E 037°50'0 0.0
2017-Mar-31 05:59N 44°42' E 037°50'0 0.0
2017-Mar-31 05:29N 44°42' E 037°50'0 0.0
2017-Mar-31 04:59N 44°42' E 037°50'0 0.0
2017-Mar-31 04:32N 44°42' E 037°50'0 0.0
2017-Mar-31 03:32N 44°42' E 037°50'0 0.0
2017-Mar-31 02:32N 44°42' E 037°50'0 0.0
2017-Mar-31 01:32N 44°42' E 037°50'0 0.0
2017-Mar-31 00:32N 44°42' E 037°50'0 0.0
2017-Mar-30 23:32N 44°42' E 037°50'0 0.0
2017-Mar-30 22:32N 44°42' E 037°50'0 0.0
2017-Mar-30 21:32N 44°42' E 037°50'0 0.0
2017-Mar-30 20:32N 44°42' E 037°50'0 0.0
2017-Mar-30 19:32N 44°42' E 037°50'0 0.0
2017-Mar-30 18:32N 44°42' E 037°50'0 0.0
2017-Mar-30 17:32N 44°42' E 037°50'0 0.0
2017-Mar-30 16:32N 44°42' E 037°50'0 0.0
2017-Mar-30 15:32N 44°42' E 037°50'0 0.0
2017-Mar-30 14:32N 44°42' E 037°50'0 0.0
2017-Mar-30 13:32N 44°42' E 037°50'0 0.0
2017-Mar-30 12:32N 44°42' E 037°50'0 0.0
2017-Mar-30 11:32N 44°42' E 037°50'0 0.0
2017-Mar-30 10:32N 44°42' E 037°50'0 0.0
2017-Mar-30 09:29N 44°42' E 037°50'0 0.0
2017-Mar-30 08:32N 44°42' E 037°50'0 0.0
2017-Mar-30 07:34N 44°42' E 037°50'1 0.8
2017-Mar-30 06:33N 44°41' E 037°50'7 6.8
2017-Mar-30 05:33N 44°35' E 037°51'1010.0
2017-Mar-30 04:33N 44°28' E 037°41'5 4.7
2017-Mar-30 03:33N 44°26' E 037°35'2 1.4
2017-Mar-30 02:22N 44°25' E 037°37'1 1.4
2017-Mar-30 01:32N 44°25' E 037°38'2 1.3
2017-Mar-30 00:24N 44°25' E 037°40'1 1.3
2017-Mar-29 23:33N 44°24' E 037°42'1 1.2
2017-Mar-29 22:33N 44°24' E 037°43'1 1.0
2017-Mar-29 21:33N 44°24' E 037°45'1 0.9
2017-Mar-29 20:33N 44°23' E 037°46'1 0.9
2017-Mar-29 19:33N 44°23' E 037°47'1 1.0
2017-Mar-29 18:33N 44°22' E 037°48'4 3.1
2017-Mar-29 17:19N 44°23' E 037°53'3 4.4
2017-Mar-29 16:33N 44°20' E 037°50'7 6.6
2017-Mar-29 15:33N 44°24' E 037°42'2 1.6
2017-Mar-29 14:33N 44°26' E 037°42'1 1.5
2017-Mar-29 13:33N 44°25' E 037°43'2 1.5
2017-Mar-29 12:33N 44°24' E 037°44'2 2.1
2017-Mar-29 11:31N 44°26' E 037°45'2 1.6
2017-Mar-29 10:34N 44°25' E 037°47'2 1.6
2017-Mar-29 09:34N 44°23' E 037°46'2 1.6
2017-Mar-29 08:33N 44°22' E 037°45'2 1.5
2017-Mar-29 07:33N 44°20' E 037°45'1 1.4
2017-Mar-29 06:34N 44°19' E 037°45'1 1.4
2017-Mar-29 05:33N 44°17' E 037°45'2 1.6
2017-Mar-29 04:34N 44°16' E 037°44'1 1.0
2017-Mar-29 03:15N 44°17' E 037°44'811.5
2017-Mar-29 02:32N 44°25' E 037°47'1 1.4
2017-Mar-29 01:33N 44°23' E 037°47'2 2.0
2017-Mar-29 00:33N 44°22' E 037°46'2 2.1
2017-Mar-28 23:33N 44°20' E 037°45'2 2.3
2017-Mar-28 22:33N 44°17' E 037°45'2 1.9
2017-Mar-28 21:27N 44°15' E 037°45'1010.9
2017-Mar-28 20:33N 44°25' E 037°41'3 1.6
2017-Mar-28 18:33N 44°23' E 037°37'10 7.3
2017-Mar-28 17:13N 44°13' E 037°34'1217.2
2017-Mar-28 16:33N 44°24' E 037°39'3 2.0
2017-Mar-28 15:04N 44°23' E 037°35'3 5.0
2017-Mar-28 14:33N 44°26' E 037°37'2 1.6
2017-Mar-28 13:33N 44°24' E 037°37'2 1.5
2017-Mar-28 12:33N 44°22' E 037°37'2 1.6
2017-Mar-28 11:33N 44°21' E 037°36'2 1.6
2017-Mar-28 10:33N 44°19' E 037°35'4 4.3
2017-Mar-28 09:33N 44°22' E 037°41'7 5.8
2017-Mar-28 08:24N 44°20' E 037°50'4 4.3
2017-Mar-28 07:34N 44°23' E 037°47'2 1.8
2017-Mar-28 06:34N 44°21' E 037°46'2 1.7
2017-Mar-28 05:34N 44°20' E 037°45'2 1.5
2017-Mar-28 04:34N 44°18' E 037°45'1 1.3
2017-Mar-28 03:34N 44°17' E 037°44'1 0.9
2017-Mar-28 02:34N 44°16' E 037°43'1 0.7
2017-Mar-28 01:33N 44°16' E 037°42'1 1.0
2017-Mar-28 00:33N 44°17' E 037°41'1 1.5
2017-Mar-27 23:33N 44°18' E 037°39'2 1.6
2017-Mar-27 22:33N 44°19' E 037°37'2 1.6
2017-Mar-27 21:34N 44°19' E 037°35'1 1.3
2017-Mar-27 20:34N 44°20' E 037°34'2 0.8
2017-Mar-27 18:33N 44°21' E 037°32'1 0.7
2017-Mar-27 17:33N 44°21' E 037°31'1 1.3
2017-Mar-27 16:33N 44°20' E 037°33'9 9.2
2017-Mar-27 15:33N 44°16' E 037°45'1 1.0
2017-Mar-27 14:33N 44°16' E 037°44'1 0.9
2017-Mar-27 13:32N 44°15' E 037°43'1 0.8
2017-Mar-27 12:33N 44°15' E 037°42'1 0.7
2017-Mar-27 11:33N 44°15' E 037°41'1 0.6
2017-Mar-27 10:34N 44°15' E 037°40'1 0.6
2017-Mar-27 09:33N 44°15' E 037°39'1 0.5
2017-Mar-27 08:32N 44°16' E 037°39'  

Dump ship's entire track history